sensor_id;sensor_type;location;lat;lon;timestamp;temperature;humidity
4293;DHT22;2160;51.172;6.808;2022-12-07T05:01:25;7.80;99.90
4293;DHT22;2160;51.172;6.808;2022-12-07T05:03:52;7.70;99.90
4293;DHT22;2160;51.172;6.808;2022-12-07T05:06:19;7.70;99.90
4293;DHT22;2160;51.172;6.808;2022-12-07T05:08:46;7.90;99.90
4293;DHT22;2160;51.172;6.808;2022-12-07T05:11:14;7.70;99.90
4293;DHT22;2160;51.172;6.808;2022-12-07T05:13:55;7.80;99.90
4293;DHT22;2160;51.172;6.808;2022-12-07T05:16:22;7.90;99.90
4293;DHT22;2160;51.172;6.808;2022-12-07T05:18:51;8.00;99.90
4293;DHT22;2160;51.172;6.808;2022-12-07T05:21:18;8.10;99.90
4293;DHT22;2160;51.172;6.808;2022-12-07T05:23:45;7.80;99.90
4293;DHT22;2160;51.172;6.808;2022-12-07T05:26:12;7.90;99.90
4293;DHT22;2160;51.172;6.808;2022-12-07T05:28:39;8.00;99.90
4293;DHT22;2160;51.172;6.808;2022-12-07T05:31:20;8.20;99.90
4293;DHT22;2160;51.172;6.808;2022-12-07T05:33:47;8.40;99.90
4293;DHT22;2160;51.172;6.808;2022-12-07T05:36:16;8.50;99.90
4293;DHT22;2160;51.172;6.808;2022-12-07T05:38:43;8.00;99.90
4293;DHT22;2160;51.172;6.808;2022-12-07T05:41:28;7.80;99.90
4293;DHT22;2160;51.172;6.808;2022-12-07T05:44:13;7.60;99.90
4293;DHT22;2160;51.172;6.808;2022-12-07T05:46:40;7.40;99.90
4293;DHT22;2160;51.172;6.808;2022-12-07T05:49:08;7.60;99.90
4293;DHT22;2160;51.172;6.808;2022-12-07T05:51:36;7.90;99.90
4293;DHT22;2160;51.172;6.808;2022-12-07T05:54:03;7.90;99.90
4293;DHT22;2160;51.172;6.808;2022-12-07T05:56:30;8.00;99.90
4293;DHT22;2160;51.172;6.808;2022-12-07T05:58:57;8.00;99.90
4293;DHT22;2160;51.172;6.808;2022-12-07T06:01:41;8.10;99.90
4293;DHT22;2160;51.172;6.808;2022-12-07T06:04:08;8.10;99.90
4293;DHT22;2160;51.172;6.808;2022-12-07T06:06:37;8.00;99.90
4293;DHT22;2160;51.172;6.808;2022-12-07T06:09:04;7.90;99.90
4293;DHT22;2160;51.172;6.808;2022-12-07T06:11:31;8.00;99.90
4293;DHT22;2160;51.172;6.808;2022-12-07T06:14:15;7.90;99.90
4293;DHT22;2160;51.172;6.808;2022-12-07T06:16:43;8.10;99.90
4293;DHT22;2160;51.172;6.808;2022-12-07T06:19:10;8.10;99.90
4293;DHT22;2160;51.172;6.808;2022-12-07T06:21:38;7.90;99.90
4293;DHT22;2160;51.172;6.808;2022-12-07T06:24:05;8.00;99.90
4293;DHT22;2160;51.172;6.808;2022-12-07T06:26:32;8.10;99.90
4293;DHT22;2160;51.172;6.808;2022-12-07T06:28:59;8.20;99.90
4293;DHT22;2160;51.172;6.808;2022-12-07T06:31:26;8.20;99.90
4293;DHT22;2160;51.172;6.808;2022-12-07T06:33:57;8.20;99.90
4293;DHT22;2160;51.172;6.808;2022-12-07T06:36:24;8.00;99.90
4293;DHT22;2160;51.172;6.808;2022-12-07T06:38:52;7.90;99.90
4293;DHT22;2160;51.172;6.808;2022-12-07T06:41:19;7.90;99.90
4293;DHT22;2160;51.172;6.808;2022-12-07T06:43:46;7.70;99.90
4293;DHT22;2160;51.172;6.808;2022-12-07T06:46:13;7.70;99.90
4293;DHT22;2160;51.172;6.808;2022-12-07T06:48:40;7.70;99.90
4293;DHT22;2160;51.172;6.808;2022-12-07T06:51:08;7.70;99.90
4293;DHT22;2160;51.172;6.808;2022-12-07T06:53:35;7.70;99.90
4293;DHT22;2160;51.172;6.808;2022-12-07T06:56:04;7.60;99.90
4293;DHT22;2160;51.172;6.808;2022-12-07T06:58:31;7.80;99.90
4293;DHT22;2160;51.172;6.808;2022-12-07T07:00:58;7.90;99.90
4293;DHT22;2160;51.172;6.808;2022-12-07T07:03:25;8.00;99.90
4293;DHT22;2160;51.172;6.808;2022-12-07T07:05:52;7.80;99.90
4293;DHT22;2160;51.172;6.808;2022-12-07T07:08:19;7.90;99.90
4293;DHT22;2160;51.172;6.808;2022-12-07T07:10:45;8.20;99.90
4293;DHT22;2160;51.172;6.808;2022-12-07T07:13:14;8.30;99.90
4293;DHT22;2160;51.172;6.808;2022-12-07T07:15:40;8.20;99.90
4293;DHT22;2160;51.172;6.808;2022-12-07T07:18:07;8.10;99.90
4293;DHT22;2160;51.172;6.808;2022-12-07T07:20:34;8.10;99.90
4293;DHT22;2160;51.172;6.808;2022-12-07T07:23:01;8.20;99.90
4293;DHT22;2160;51.172;6.808;2022-12-07T07:25:28;8.20;99.90
4293;DHT22;2160;51.172;6.808;2022-12-07T07:27:55;8.20;99.90
4293;DHT22;2160;51.172;6.808;2022-12-07T07:30:23;8.40;99.90
4293;DHT22;2160;51.172;6.808;2022-12-07T07:32:50;8.50;99.90
4293;DHT22;2160;51.172;6.808;2022-12-07T07:35:17;8.70;99.90
4293;DHT22;2160;51.172;6.808;2022-12-07T07:37:44;8.70;99.90
4293;DHT22;2160;51.172;6.808;2022-12-07T07:40:11;8.80;99.90
4293;DHT22;2160;51.172;6.808;2022-12-07T07:42:38;8.70;99.90
4293;DHT22;2160;51.172;6.808;2022-12-07T07:45:06;8.70;99.90
4293;DHT22;2160;51.172;6.808;2022-12-07T07:47:35;8.80;99.90
4293;DHT22;2160;51.172;6.808;2022-12-07T07:50:02;8.90;99.90
4293;DHT22;2160;51.172;6.808;2022-12-07T07:52:29;8.80;99.90
4293;DHT22;2160;51.172;6.808;2022-12-07T07:54:55;8.80;99.90
4293;DHT22;2160;51.172;6.808;2022-12-07T07:57:22;8.80;99.90
4293;DHT22;2160;51.172;6.808;2022-12-07T07:59:49;8.80;99.90
4293;DHT22;2160;51.172;6.808;2022-12-07T08:02:18;8.80;99.90
4293;DHT22;2160;51.172;6.808;2022-12-07T08:04:46;8.70;99.90
4293;DHT22;2160;51.172;6.808;2022-12-07T08:07:14;8.80;99.90
4293;DHT22;2160;51.172;6.808;2022-12-07T08:09:41;8.80;99.90
4293;DHT22;2160;51.172;6.808;2022-12-07T08:12:08;8.80;99.90
4293;DHT22;2160;51.172;6.808;2022-12-07T08:14:35;8.70;99.90
4293;DHT22;2160;51.172;6.808;2022-12-07T08:17:02;8.70;99.90
4293;DHT22;2160;51.172;6.808;2022-12-07T08:19:29;8.50;99.90
4293;DHT22;2160;51.172;6.808;2022-12-07T08:21:57;8.50;99.90
4293;DHT22;2160;51.172;6.808;2022-12-07T08:24:24;8.40;99.90
4293;DHT22;2160;51.172;6.808;2022-12-07T08:26:51;8.60;99.90
4293;DHT22;2160;51.172;6.808;2022-12-07T08:29:18;8.60;99.90
4293;DHT22;2160;51.172;6.808;2022-12-07T08:31:46;8.40;99.90
4293;DHT22;2160;51.172;6.808;2022-12-07T08:34:13;8.50;99.90
4293;DHT22;2160;51.172;6.808;2022-12-07T08:36:40;8.60;99.90
4293;DHT22;2160;51.172;6.808;2022-12-07T08:39:08;8.60;99.90
4293;DHT22;2160;51.172;6.808;2022-12-07T08:41:36;8.40;99.90
4293;DHT22;2160;51.172;6.808;2022-12-07T08:44:03;8.50;99.90
4293;DHT22;2160;51.172;6.808;2022-12-07T08:46:35;8.60;99.90
4293;DHT22;2160;51.172;6.808;2022-12-07T08:49:05;8.70;99.90
4293;DHT22;2160;51.172;6.808;2022-12-07T08:51:33;8.90;99.90
4293;DHT22;2160;51.172;6.808;2022-12-07T08:54:02;8.80;99.90
4293;DHT22;2160;51.172;6.808;2022-12-07T08:56:31;8.80;99.90
4293;DHT22;2160;51.172;6.808;2022-12-07T08:58:58;9.00;99.90
4293;DHT22;2160;51.172;6.808;2022-12-07T09:01:25;8.90;99.90
4293;DHT22;2160;51.172;6.808;2022-12-07T09:03:52;8.70;99.90
4293;DHT22;2160;51.172;6.808;2022-12-07T09:06:19;8.70;99.90
4293;DHT22;2160;51.172;6.808;2022-12-07T09:08:51;8.80;99.90
4293;DHT22;2160;51.172;6.808;2022-12-07T09:11:20;8.90;99.90
4293;DHT22;2160;51.172;6.808;2022-12-07T09:13:49;8.80;99.90
4293;DHT22;2160;51.172;6.808;2022-12-07T09:16:15;8.60;99.90
4293;DHT22;2160;51.172;6.808;2022-12-07T09:18:42;8.60;99.90
4293;DHT22;2160;51.172;6.808;2022-12-07T09:21:09;8.60;99.90
4293;DHT22;2160;51.172;6.808;2022-12-07T09:23:36;8.50;99.90
4293;DHT22;2160;51.172;6.808;2022-12-07T09:26:04;8.50;99.90
4293;DHT22;2160;51.172;6.808;2022-12-07T09:28:31;8.40;99.90
4293;DHT22;2160;51.172;6.808;2022-12-07T09:30:59;8.50;99.90
4293;DHT22;2160;51.172;6.808;2022-12-07T09:33:26;8.50;99.90
4293;DHT22;2160;51.172;6.808;2022-12-07T09:35:53;8.50;99.90
4293;DHT22;2160;51.172;6.808;2022-12-07T09:38:20;8.50;99.90
4293;DHT22;2160;51.172;6.808;2022-12-07T09:40:48;8.40;99.90
4293;DHT22;2160;51.172;6.808;2022-12-07T09:43:17;8.50;99.90
4293;DHT22;2160;51.172;6.808;2022-12-07T09:45:48;8.50;99.90
4293;DHT22;2160;51.172;6.808;2022-12-07T09:48:19;8.40;99.90
4293;DHT22;2160;51.172;6.808;2022-12-07T09:50:47;8.40;99.90
4293;DHT22;2160;51.172;6.808;2022-12-07T09:53:19;8.60;99.90
4293;DHT22;2160;51.172;6.808;2022-12-07T09:55:47;8.50;99.90
4293;DHT22;2160;51.172;6.808;2022-12-07T09:58:20;8.50;99.90
4293;DHT22;2160;51.172;6.808;2022-12-07T10:00:47;8.60;99.90
4293;DHT22;2160;51.172;6.808;2022-12-07T10:03:15;8.50;99.90
4293;DHT22;2160;51.172;6.808;2022-12-07T10:05:46;8.50;99.90
4293;DHT22;2160;51.172;6.808;2022-12-07T10:08:14;8.60;99.90
4293;DHT22;2160;51.172;6.808;2022-12-07T10:10:43;8.60;99.90
4293;DHT22;2160;51.172;6.808;2022-12-07T10:13:12;8.50;99.90
4293;DHT22;2160;51.172;6.808;2022-12-07T10:15:49;8.50;99.90
4293;DHT22;2160;51.172;6.808;2022-12-07T10:18:19;8.50;99.90
4293;DHT22;2160;51.172;6.808;2022-12-07T10:20:48;8.50;99.90
4293;DHT22;2160;51.172;6.808;2022-12-07T10:23:17;8.50;99.90
4293;DHT22;2160;51.172;6.808;2022-12-07T10:25:44;8.80;99.90
4293;DHT22;2160;51.172;6.808;2022-12-07T10:28:15;8.90;99.90
4293;DHT22;2160;51.172;6.808;2022-12-07T10:30:48;8.80;99.90
4293;DHT22;2160;51.172;6.808;2022-12-07T10:33:31;8.60;99.90
4293;DHT22;2160;51.172;6.808;2022-12-07T10:36:00;8.50;99.90
4293;DHT22;2160;51.172;6.808;2022-12-07T10:38:44;8.40;99.90
4293;DHT22;2160;51.172;6.808;2022-12-07T10:41:11;8.50;99.90
4293;DHT22;2160;51.172;6.808;2022-12-07T10:43:47;8.60;99.90
4293;DHT22;2160;51.172;6.808;2022-12-07T10:46:44;8.60;99.90
4293;DHT22;2160;51.172;6.808;2022-12-07T10:49:31;8.50;99.90
4293;DHT22;2160;51.172;6.808;2022-12-07T10:52:09;8.60;99.90
4293;DHT22;2160;51.172;6.808;2022-12-07T10:54:43;8.70;99.90
4293;DHT22;2160;51.172;6.808;2022-12-07T10:57:24;8.70;99.90
4293;DHT22;2160;51.172;6.808;2022-12-07T11:00:04;8.80;99.90
4293;DHT22;2160;51.172;6.808;2022-12-07T11:03:27;9.00;99.90
4293;DHT22;2160;51.172;6.808;2022-12-07T11:06:07;9.10;99.90
4293;DHT22;2160;51.172;6.808;2022-12-07T11:08:52;8.90;99.90
4293;DHT22;2160;51.172;6.808;2022-12-07T11:11:26;8.90;99.90
4293;DHT22;2160;51.172;6.808;2022-12-07T11:14:01;8.90;99.90
4293;DHT22;2160;51.172;6.808;2022-12-07T11:16:47;9.00;99.90
4293;DHT22;2160;51.172;6.808;2022-12-07T11:19:41;8.90;99.90
4293;DHT22;2160;51.172;6.808;2022-12-07T11:22:16;8.80;99.90
4293;DHT22;2160;51.172;6.808;2022-12-07T11:24:50;8.70;99.90
4293;DHT22;2160;51.172;6.808;2022-12-07T11:27:24;8.70;99.90
4293;DHT22;2160;51.172;6.808;2022-12-07T11:30:02;8.80;99.90
4293;DHT22;2160;51.172;6.808;2022-12-07T11:32:42;9.00;99.90
4293;DHT22;2160;51.172;6.808;2022-12-07T11:35:16;9.10;99.90
4293;DHT22;2160;51.172;6.808;2022-12-07T11:37:46;9.50;99.90
4293;DHT22;2160;51.172;6.808;2022-12-07T11:40:20;9.60;99.90
4293;DHT22;2160;51.172;6.808;2022-12-07T11:42:52;9.60;99.90
4293;DHT22;2160;51.172;6.808;2022-12-07T11:45:24;9.30;99.90
4293;DHT22;2160;51.172;6.808;2022-12-07T11:47:55;9.20;99.90
4293;DHT22;2160;51.172;6.808;2022-12-07T11:50:27;9.30;99.90
4293;DHT22;2160;51.172;6.808;2022-12-07T11:52:57;9.40;99.90
4293;DHT22;2160;51.172;6.808;2022-12-07T11:55:32;9.60;99.90
4293;DHT22;2160;51.172;6.808;2022-12-07T11:58:33;9.50;99.90
4293;DHT22;2160;51.172;6.808;2022-12-07T12:01:11;9.30;99.90
4293;DHT22;2160;51.172;6.808;2022-12-07T12:03:42;9.40;99.90
4293;DHT22;2160;51.172;6.808;2022-12-07T12:06:11;9.50;99.90
4293;DHT22;2160;51.172;6.808;2022-12-07T12:08:42;9.40;99.90
4293;DHT22;2160;51.172;6.808;2022-12-07T12:11:21;9.30;99.90
4293;DHT22;2160;51.172;6.808;2022-12-07T12:14:08;9.20;99.90
4293;DHT22;2160;51.172;6.808;2022-12-07T12:16:54;9.50;99.90
4293;DHT22;2160;51.172;6.808;2022-12-07T12:19:32;9.70;99.90
4293;DHT22;2160;51.172;6.808;2022-12-07T12:22:07;10.00;99.90
4293;DHT22;2160;51.172;6.808;2022-12-07T12:24:37;10.30;99.90
4293;DHT22;2160;51.172;6.808;2022-12-07T12:27:09;10.20;99.90
4293;DHT22;2160;51.172;6.808;2022-12-07T12:29:39;9.90;99.90
4293;DHT22;2160;51.172;6.808;2022-12-07T12:32:16;9.80;99.90
4293;DHT22;2160;51.172;6.808;2022-12-07T12:35:00;9.80;99.90
4293;DHT22;2160;51.172;6.808;2022-12-07T12:37:40;9.70;99.90
4293;DHT22;2160;51.172;6.808;2022-12-07T12:40:38;9.70;99.90
4293;DHT22;2160;51.172;6.808;2022-12-07T12:46:39;9.80;99.90
4293;DHT22;2160;51.172;6.808;2022-12-07T12:49:37;10.00;99.90
4293;DHT22;2160;51.172;6.808;2022-12-07T12:55:15;9.90;99.90
4293;DHT22;2160;51.172;6.808;2022-12-07T12:57:46;9.60;99.90
4293;DHT22;2160;51.172;6.808;2022-12-07T13:00:19;9.60;99.90
4293;DHT22;2160;51.172;6.808;2022-12-07T13:02:50;9.40;99.90
4293;DHT22;2160;51.172;6.808;2022-12-07T13:05:20;9.40;99.90
4293;DHT22;2160;51.172;6.808;2022-12-07T13:07:55;9.60;99.90
4293;DHT22;2160;51.172;6.808;2022-12-07T13:13:30;9.50;99.90
4293;DHT22;2160;51.172;6.808;2022-12-07T13:22:42;9.40;99.90
4293;DHT22;2160;51.172;6.808;2022-12-07T13:25:12;9.50;99.90
4293;DHT22;2160;51.172;6.808;2022-12-07T13:27:48;9.60;99.90
4293;DHT22;2160;51.172;6.808;2022-12-07T13:30:19;9.50;99.90
4293;DHT22;2160;51.172;6.808;2022-12-07T13:32:52;9.60;99.90
4293;DHT22;2160;51.172;6.808;2022-12-07T13:35:33;9.60;99.90
4293;DHT22;2160;51.172;6.808;2022-12-07T13:38:04;9.70;99.90
4293;DHT22;2160;51.172;6.808;2022-12-07T13:40:33;9.90;99.90
4293;DHT22;2160;51.172;6.808;2022-12-07T13:43:12;9.80;99.90
4293;DHT22;2160;51.172;6.808;2022-12-07T13:45:41;9.70;99.90
4293;DHT22;2160;51.172;6.808;2022-12-07T13:48:24;9.80;99.90
4293;DHT22;2160;51.172;6.808;2022-12-07T13:50:56;10.10;99.90
4293;DHT22;2160;51.172;6.808;2022-12-07T13:53:24;9.70;99.90
4293;DHT22;2160;51.172;6.808;2022-12-07T13:55:53;9.50;99.90
4293;DHT22;2160;51.172;6.808;2022-12-07T13:58:22;9.40;99.90
4293;DHT22;2160;51.172;6.808;2022-12-07T14:00:49;9.30;99.90
4293;DHT22;2160;51.172;6.808;2022-12-07T14:03:27;9.20;99.90
4293;DHT22;2160;51.172;6.808;2022-12-07T14:06:17;9.40;99.90
4293;DHT22;2160;51.172;6.808;2022-12-07T14:08:47;9.60;99.90
4293;DHT22;2160;51.172;6.808;2022-12-07T14:11:17;9.60;99.90
4293;DHT22;2160;51.172;6.808;2022-12-07T14:13:59;9.90;99.90
4293;DHT22;2160;51.172;6.808;2022-12-07T14:16:29;9.80;99.90
4293;DHT22;2160;51.172;6.808;2022-12-07T14:18:58;9.80;99.90
4293;DHT22;2160;51.172;6.808;2022-12-07T14:21:27;9.90;99.90
4293;DHT22;2160;51.172;6.808;2022-12-07T14:24:17;9.90;99.90
4293;DHT22;2160;51.172;6.808;2022-12-07T14:26:45;9.70;99.90
4293;DHT22;2160;51.172;6.808;2022-12-07T14:29:29;9.70;99.90
4293;DHT22;2160;51.172;6.808;2022-12-07T14:31:57;9.80;99.90
4293;DHT22;2160;51.172;6.808;2022-12-07T14:34:25;10.00;99.90
4293;DHT22;2160;51.172;6.808;2022-12-07T14:36:52;10.10;99.90
4293;DHT22;2160;51.172;6.808;2022-12-07T14:39:20;10.20;99.90
4293;DHT22;2160;51.172;6.808;2022-12-07T14:41:47;10.20;99.90
4293;DHT22;2160;51.172;6.808;2022-12-07T14:44:18;10.40;99.90
4293;DHT22;2160;51.172;6.808;2022-12-07T14:46:45;10.30;99.90
4293;DHT22;2160;51.172;6.808;2022-12-07T14:49:12;10.20;99.90
4293;DHT22;2160;51.172;6.808;2022-12-07T14:51:41;10.30;99.90
4293;DHT22;2160;51.172;6.808;2022-12-07T14:54:15;10.30;99.90
4293;DHT22;2160;51.172;6.808;2022-12-07T14:56:44;10.30;99.90
4293;DHT22;2160;51.172;6.808;2022-12-07T14:59:11;10.30;99.90
4293;DHT22;2160;51.172;6.808;2022-12-07T15:01:38;10.30;99.90
4293;DHT22;2160;51.172;6.808;2022-12-07T15:04:05;10.40;99.90
4293;DHT22;2160;51.172;6.808;2022-12-07T15:06:32;10.50;99.90
4293;DHT22;2160;51.172;6.808;2022-12-07T15:08:59;10.50;99.90
4293;DHT22;2160;51.172;6.808;2022-12-07T15:11:27;10.50;99.90
4293;DHT22;2160;51.172;6.808;2022-12-07T15:13:55;10.50;99.90
4293;DHT22;2160;51.172;6.808;2022-12-07T15:16:40;10.40;99.90
4293;DHT22;2160;51.172;6.808;2022-12-07T15:19:12;10.40;99.90
4293;DHT22;2160;51.172;6.808;2022-12-07T15:21:39;10.20;99.90
4293;DHT22;2160;51.172;6.808;2022-12-07T15:24:08;10.30;99.90
4293;DHT22;2160;51.172;6.808;2022-12-07T15:26:35;10.10;99.90
4293;DHT22;2160;51.172;6.808;2022-12-07T15:29:03;10.00;99.90
4293;DHT22;2160;51.172;6.808;2022-12-07T15:31:31;9.90;99.90
4293;DHT22;2160;51.172;6.808;2022-12-07T15:33:57;9.80;99.90
4293;DHT22;2160;51.172;6.808;2022-12-07T15:36:26;9.90;99.90
4293;DHT22;2160;51.172;6.808;2022-12-07T15:38:54;9.80;99.90
4293;DHT22;2160;51.172;6.808;2022-12-07T15:41:21;9.60;99.90
4293;DHT22;2160;51.172;6.808;2022-12-07T15:43:49;9.70;99.90
4293;DHT22;2160;51.172;6.808;2022-12-07T15:46:36;9.70;99.90
4293;DHT22;2160;51.172;6.808;2022-12-07T15:49:04;9.80;99.90
4293;DHT22;2160;51.172;6.808;2022-12-07T15:51:33;9.70;99.90
4293;DHT22;2160;51.172;6.808;2022-12-07T15:53:59;9.70;99.90
4293;DHT22;2160;51.172;6.808;2022-12-07T15:56:26;9.60;99.90
4293;DHT22;2160;51.172;6.808;2022-12-07T15:58:53;9.60;99.90
4293;DHT22;2160;51.172;6.808;2022-12-07T16:01:20;9.60;99.90
4293;DHT22;2160;51.172;6.808;2022-12-07T16:03:49;9.30;99.90
4293;DHT22;2160;51.172;6.808;2022-12-07T16:06:16;9.40;99.90
4293;DHT22;2160;51.172;6.808;2022-12-07T16:08:43;9.40;99.90
4293;DHT22;2160;51.172;6.808;2022-12-07T16:11:11;9.40;99.90
4293;DHT22;2160;51.172;6.808;2022-12-07T16:13:38;9.50;99.90
4293;DHT22;2160;51.172;6.808;2022-12-07T16:16:06;9.40;99.90
4293;DHT22;2160;51.172;6.808;2022-12-07T16:18:35;9.40;99.90
4293;DHT22;2160;51.172;6.808;2022-12-07T16:21:03;9.50;99.90
4293;DHT22;2160;51.172;6.808;2022-12-07T16:23:30;9.50;99.90
4293;DHT22;2160;51.172;6.808;2022-12-07T16:26:04;9.50;99.90
4293;DHT22;2160;51.172;6.808;2022-12-07T16:28:31;9.50;99.90
4293;DHT22;2160;51.172;6.808;2022-12-07T16:31:03;9.40;99.90
4293;DHT22;2160;51.172;6.808;2022-12-07T16:33:30;9.20;99.90
4293;DHT22;2160;51.172;6.808;2022-12-07T16:35:58;9.30;99.90
4293;DHT22;2160;51.172;6.808;2022-12-07T16:38:27;9.20;99.90
4293;DHT22;2160;51.172;6.808;2022-12-07T16:40:54;9.20;99.90
4293;DHT22;2160;51.172;6.808;2022-12-07T16:43:21;9.20;99.90
4293;DHT22;2160;51.172;6.808;2022-12-07T16:45:48;9.10;99.90
4293;DHT22;2160;51.172;6.808;2022-12-07T16:48:16;9.20;99.90
4293;DHT22;2160;51.172;6.808;2022-12-07T16:50:43;9.20;99.90
4293;DHT22;2160;51.172;6.808;2022-12-07T16:53:11;9.10;99.90
4293;DHT22;2160;51.172;6.808;2022-12-07T16:55:40;9.20;99.90
4293;DHT22;2160;51.172;6.808;2022-12-07T16:58:08;9.20;99.90
4293;DHT22;2160;51.172;6.808;2022-12-07T17:00:37;9.30;99.90
4293;DHT22;2160;51.172;6.808;2022-12-07T17:03:04;9.40;99.90
4293;DHT22;2160;51.172;6.808;2022-12-07T17:05:31;9.40;99.90
4293;DHT22;2160;51.172;6.808;2022-12-07T17:07:58;9.30;99.90
4293;DHT22;2160;51.172;6.808;2022-12-07T17:10:25;9.30;99.90
4293;DHT22;2160;51.172;6.808;2022-12-07T17:12:53;9.20;99.90
4293;DHT22;2160;51.172;6.808;2022-12-07T17:15:22;9.20;99.90
4293;DHT22;2160;51.172;6.808;2022-12-07T17:17:52;9.20;99.90
4293;DHT22;2160;51.172;6.808;2022-12-07T17:20:19;9.10;99.90
4293;DHT22;2160;51.172;6.808;2022-12-07T17:22:47;8.90;99.90
4293;DHT22;2160;51.172;6.808;2022-12-07T17:25:15;8.80;99.90
4293;DHT22;2160;51.172;6.808;2022-12-07T17:27:43;8.80;99.90
4293;DHT22;2160;51.172;6.808;2022-12-07T17:30:13;8.70;99.90
4293;DHT22;2160;51.172;6.808;2022-12-07T17:32:40;8.90;99.90
4293;DHT22;2160;51.172;6.808;2022-12-07T17:35:07;8.90;99.90
4293;DHT22;2160;51.172;6.808;2022-12-07T17:37:34;8.90;99.90
4293;DHT22;2160;51.172;6.808;2022-12-07T17:40:01;8.80;99.90
4293;DHT22;2160;51.172;6.808;2022-12-07T17:42:28;8.80;99.90
4293;DHT22;2160;51.172;6.808;2022-12-07T17:45:07;8.70;99.90
4293;DHT22;2160;51.172;6.808;2022-12-07T17:47:36;8.70;99.90
4293;DHT22;2160;51.172;6.808;2022-12-07T17:50:05;8.70;99.90
4293;DHT22;2160;51.172;6.808;2022-12-07T17:52:32;8.80;99.90
4293;DHT22;2160;51.172;6.808;2022-12-07T17:55:17;8.90;99.90
4293;DHT22;2160;51.172;6.808;2022-12-07T17:57:44;8.90;99.90
4293;DHT22;2160;51.172;6.808;2022-12-07T18:00:12;8.90;99.90
4293;DHT22;2160;51.172;6.808;2022-12-07T18:02:40;9.00;99.90
4293;DHT22;2160;51.172;6.808;2022-12-07T18:05:08;9.10;99.90
4293;DHT22;2160;51.172;6.808;2022-12-07T18:07:35;9.10;99.90
4293;DHT22;2160;51.172;6.808;2022-12-07T18:10:03;9.10;99.90
4293;DHT22;2160;51.172;6.808;2022-12-07T18:12:32;9.10;99.90
4293;DHT22;2160;51.172;6.808;2022-12-07T18:14:58;9.00;99.90
4293;DHT22;2160;51.172;6.808;2022-12-07T18:17:26;9.10;99.90
4293;DHT22;2160;51.172;6.808;2022-12-07T18:19:54;9.00;99.90
4293;DHT22;2160;51.172;6.808;2022-12-07T18:22:21;8.80;99.90
4293;DHT22;2160;51.172;6.808;2022-12-07T18:24:48;8.80;99.90
4293;DHT22;2160;51.172;6.808;2022-12-07T18:27:15;8.60;99.90
4293;DHT22;2160;51.172;6.808;2022-12-07T18:29:42;8.60;99.90
4293;DHT22;2160;51.172;6.808;2022-12-07T18:32:09;8.70;99.90
4293;DHT22;2160;51.172;6.808;2022-12-07T18:34:36;8.80;99.90
4293;DHT22;2160;51.172;6.808;2022-12-07T18:37:04;8.90;99.90
4293;DHT22;2160;51.172;6.808;2022-12-07T18:39:31;9.00;99.90
4293;DHT22;2160;51.172;6.808;2022-12-07T18:41:58;8.90;99.90
4293;DHT22;2160;51.172;6.808;2022-12-07T18:44:25;8.80;99.90
4293;DHT22;2160;51.172;6.808;2022-12-07T18:46:52;8.90;99.90
4293;DHT22;2160;51.172;6.808;2022-12-07T18:49:19;9.00;99.90
4293;DHT22;2160;51.172;6.808;2022-12-07T18:51:46;9.10;99.90
4293;DHT22;2160;51.172;6.808;2022-12-07T18:54:14;9.10;99.90
4293;DHT22;2160;51.172;6.808;2022-12-07T18:56:41;9.00;99.90
4293;DHT22;2160;51.172;6.808;2022-12-07T18:59:12;9.10;99.90
4293;DHT22;2160;51.172;6.808;2022-12-07T19:01:57;9.00;99.90
4293;DHT22;2160;51.172;6.808;2022-12-07T19:04:24;8.90;99.90
4293;DHT22;2160;51.172;6.808;2022-12-07T19:06:51;8.80;99.90
4293;DHT22;2160;51.172;6.808;2022-12-07T19:09:19;8.80;99.90
4293;DHT22;2160;51.172;6.808;2022-12-07T19:11:46;8.70;99.90
4293;DHT22;2160;51.172;6.808;2022-12-07T19:14:19;8.80;99.90
4293;DHT22;2160;51.172;6.808;2022-12-07T19:16:47;8.90;99.90
4293;DHT22;2160;51.172;6.808;2022-12-07T19:19:17;9.00;99.90
4293;DHT22;2160;51.172;6.808;2022-12-07T19:21:45;9.00;99.90
4293;DHT22;2160;51.172;6.808;2022-12-07T19:24:12;9.00;99.90
4293;DHT22;2160;51.172;6.808;2022-12-07T19:26:41;9.10;99.90
4293;DHT22;2160;51.172;6.808;2022-12-07T19:29:08;9.00;99.90
4293;DHT22;2160;51.172;6.808;2022-12-07T19:31:35;9.10;99.90
4293;DHT22;2160;51.172;6.808;2022-12-07T19:34:06;9.00;99.90
4293;DHT22;2160;51.172;6.808;2022-12-07T19:36:34;9.00;99.90
4293;DHT22;2160;51.172;6.808;2022-12-07T19:39:01;9.00;99.90
4293;DHT22;2160;51.172;6.808;2022-12-07T19:41:27;8.90;99.90
4293;DHT22;2160;51.172;6.808;2022-12-07T19:44:03;9.00;99.90
4293;DHT22;2160;51.172;6.808;2022-12-07T19:46:31;9.00;99.90
4293;DHT22;2160;51.172;6.808;2022-12-07T19:48:58;9.00;99.90
4293;DHT22;2160;51.172;6.808;2022-12-07T19:51:26;9.00;99.90
4293;DHT22;2160;51.172;6.808;2022-12-07T19:53:55;9.00;99.90
4293;DHT22;2160;51.172;6.808;2022-12-07T19:56:23;9.00;99.90
4293;DHT22;2160;51.172;6.808;2022-12-07T19:58:51;8.90;99.90
4293;DHT22;2160;51.172;6.808;2022-12-07T20:01:19;8.70;99.90
4293;DHT22;2160;51.172;6.808;2022-12-07T20:03:47;8.60;99.90
4293;DHT22;2160;51.172;6.808;2022-12-07T20:06:16;8.50;99.90
4293;DHT22;2160;51.172;6.808;2022-12-07T20:08:45;8.50;99.90
4293;DHT22;2160;51.172;6.808;2022-12-07T20:11:12;8.40;99.90
4293;DHT22;2160;51.172;6.808;2022-12-07T20:13:57;8.40;99.90
4293;DHT22;2160;51.172;6.808;2022-12-07T20:16:26;8.30;99.90
4293;DHT22;2160;51.172;6.808;2022-12-07T20:18:53;8.40;99.90
4293;DHT22;2160;51.172;6.808;2022-12-07T20:21:20;8.40;99.90
4293;DHT22;2160;51.172;6.808;2022-12-07T20:23:47;8.60;99.90
4293;DHT22;2160;51.172;6.808;2022-12-07T20:26:14;8.60;99.90
4293;DHT22;2160;51.172;6.808;2022-12-07T20:28:41;8.60;99.90
4293;DHT22;2160;51.172;6.808;2022-12-07T20:31:12;8.60;99.90
4293;DHT22;2160;51.172;6.808;2022-12-07T20:33:41;8.40;99.90
4293;DHT22;2160;51.172;6.808;2022-12-07T20:36:10;8.50;99.90
4293;DHT22;2160;51.172;6.808;2022-12-07T20:38:38;8.60;99.90
4293;DHT22;2160;51.172;6.808;2022-12-07T20:41:06;8.50;99.90
4293;DHT22;2160;51.172;6.808;2022-12-07T20:43:53;8.40;99.90
4293;DHT22;2160;51.172;6.808;2022-12-07T20:46:19;8.40;99.90
4293;DHT22;2160;51.172;6.808;2022-12-07T20:48:47;8.40;99.90
4293;DHT22;2160;51.172;6.808;2022-12-07T20:51:14;8.50;99.90
4293;DHT22;2160;51.172;6.808;2022-12-07T20:53:41;8.50;99.90
4293;DHT22;2160;51.172;6.808;2022-12-07T20:56:16;8.60;99.90
4293;DHT22;2160;51.172;6.808;2022-12-07T20:58:43;8.50;99.90
4293;DHT22;2160;51.172;6.808;2022-12-07T21:01:10;8.40;99.90
4293;DHT22;2160;51.172;6.808;2022-12-07T21:03:37;8.50;99.90
4293;DHT22;2160;51.172;6.808;2022-12-07T21:06:06;8.50;99.90
4293;DHT22;2160;51.172;6.808;2022-12-07T21:08:33;8.50;99.90
4293;DHT22;2160;51.172;6.808;2022-12-07T21:11:06;8.60;99.90
4293;DHT22;2160;51.172;6.808;2022-12-07T21:13:33;8.60;99.90
4293;DHT22;2160;51.172;6.808;2022-12-07T21:16:06;8.60;99.90
4293;DHT22;2160;51.172;6.808;2022-12-07T21:18:33;8.70;99.90
4293;DHT22;2160;51.172;6.808;2022-12-07T21:21:01;8.70;99.90
4293;DHT22;2160;51.172;6.808;2022-12-07T21:23:29;8.70;99.90
4293;DHT22;2160;51.172;6.808;2022-12-07T21:25:56;8.70;99.90
4293;DHT22;2160;51.172;6.808;2022-12-07T21:28:23;8.60;99.90
4293;DHT22;2160;51.172;6.808;2022-12-07T21:30:55;8.60;99.90
4293;DHT22;2160;51.172;6.808;2022-12-07T21:33:22;8.60;99.90
4293;DHT22;2160;51.172;6.808;2022-12-07T21:35:49;8.60;99.90
4293;DHT22;2160;51.172;6.808;2022-12-07T21:38:16;8.50;99.90
4293;DHT22;2160;51.172;6.808;2022-12-07T21:40:45;8.60;99.90
4293;DHT22;2160;51.172;6.808;2022-12-07T21:43:11;8.60;99.90
4293;DHT22;2160;51.172;6.808;2022-12-07T21:45:38;8.70;99.90
4293;DHT22;2160;51.172;6.808;2022-12-07T21:48:05;8.50;99.90
4293;DHT22;2160;51.172;6.808;2022-12-07T21:50:33;8.40;99.90
4293;DHT22;2160;51.172;6.808;2022-12-07T21:53:01;8.30;99.90